Time;durP1;ratioP1;P1;durP2;ratioP2;P2;SDS_P1;SDS_P2;PMS_P1;PMS_P2;Temp;Humidity;BMP_temperature;BMP_pressure;BME280_temperature;BME280_humidity;BME280_pressure;Samples;Min_cycle;Max_cycle;Signal;HPM_P1;HPM_P2
2021/06/15 00:00:47;;;;;;;9.57;3.43;;;26.00;42.70;;;;;;20994506;28;20045;-56
2021/06/15 00:10:48;;;;;;;8.03;3.23;;;25.90;43.00;;;;;;20994230;28;20430;-56
2021/06/15 00:20:51;;;;;;;10.48;3.00;;;25.80;43.20;;;;;;20993206;28;20049;-55
2021/06/15 00:30:52;;;;;;;10.10;3.72;;;25.70;43.70;;;;;;20993471;28;20052;-56
2021/06/15 00:40:53;;;;;;;9.87;3.77;;;25.60;43.90;;;;;;20993188;28;20060;-55
2021/06/15 00:50:54;;;;;;;7.33;3.53;;;25.40;44.20;;;;;;20992397;28;20049;-57
2021/06/15 01:00:56;;;;;;;7.20;3.20;;;25.40;44.20;;;;;;21005047;28;20052;-57
2021/06/15 01:11:31;;;;;;;6.97;4.13;;;25.30;44.10;;;;;;21006937;28;20397;-58
2021/06/15 01:21:46;;;;;;;6.13;3.08;;;25.30;43.70;;;;;;20986840;28;20201;-58
2021/06/15 01:31:51;;;;;;;8.07;3.08;;;25.10;43.70;;;;;;21004484;28;20052;-54
2021/06/15 01:42:04;;;;;;;10.20;3.70;;;25.10;43.60;;;;;;21003915;28;20057;-56
2021/06/15 01:52:09;;;;;;;6.43;2.70;;;25.10;43.40;;;;;;21003396;28;20052;-55
2021/06/15 02:02:12;;;;;;;6.47;3.45;;;25.10;43.30;;;;;;21002587;28;20090;-56
2021/06/15 02:12:18;;;;;;;7.13;3.10;;;25.10;43.30;;;;;;21001332;28;20056;-58
2021/06/15 02:22:21;;;;;;;11.48;3.15;;;25.10;43.40;;;;;;21000574;28;20048;-57
2021/06/15 02:32:28;;;;;;;8.05;2.55;;;24.90;43.70;;;;;;20999715;28;20052;-56
2021/06/15 02:42:30;;;;;;;8.50;3.00;;;24.90;43.80;;;;;;20999358;28;20079;-55
2021/06/15 02:52:55;;;;;;;6.10;2.60;;;24.80;43.90;;;;;;20998445;28;20071;-56
2021/06/15 03:02:57;;;;;;;6.82;2.80;;;24.80;43.90;;;;;;20997043;28;20052;-56
2021/06/15 03:13:08;;;;;;;8.35;3.40;;;24.70;44.20;;;;;;20996406;28;20048;-58
2021/06/15 03:23:29;;;;;;;9.00;2.90;;;24.60;44.40;;;;;;20996112;28;20048;-54
2021/06/15 03:33:35;;;;;;;6.07;2.90;;;24.60;44.20;;;;;;20978031;28;20436;-56
2021/06/15 03:43:38;;;;;;;6.78;2.92;;;24.60;44.30;;;;;;20996158;28;20312;-57
2021/06/15 03:53:40;;;;;;;5.50;2.55;;;24.60;44.30;;;;;;20977462;28;20060;-57
2021/06/15 04:03:42;;;;;;;;;;;24.60;44.00;;;;;;20995404;28;20044;-56
2021/06/15 04:13:45;;;;;;;6.75;2.72;;;24.50;44.00;;;;;;20994163;28;19928;-56
2021/06/15 04:24:11;;;;;;;8.70;2.90;;;24.50;43.90;;;;;;20995164;28;20058;-58
2021/06/15 04:34:18;;;;;;;5.75;2.90;;;24.60;43.70;;;;;;20986172;28;20078;-54
2021/06/15 04:44:33;;;;;;;7.63;3.17;;;24.50;43.50;;;;;;21008899;28;20044;-58
2021/06/15 04:54:36;;;;;;;5.97;3.20;;;24.60;43.90;;;;;;21008129;28;20163;-56
2021/06/15 05:04:38;;;;;;;7.60;3.25;;;24.50;44.30;;;;;;21008129;28;20546;-58
2021/06/15 05:14:41;;;;;;;;;;;24.50;44.20;;;;;;20989439;28;20048;-55
2021/06/15 05:24:56;;;;;;;10.80;3.08;;;24.50;43.40;;;;;;21006917;28;19920;-54
2021/06/15 05:34:59;;;;;;;10.55;3.30;;;24.60;42.70;;;;;;21004973;28;20052;-56
2021/06/15 05:45:00;;;;;;;8.65;3.20;;;24.70;43.30;;;;;;21003118;28;20511;-57
2021/06/15 05:55:03;;;;;;;10.07;3.50;;;24.70;43.90;;;;;;21004209;28;20093;-55
2021/06/15 06:15:18;;;;;;;6.63;2.83;;;24.90;42.90;;;;;;21001437;28;20416;-55
2021/06/15 06:25:20;;;;;;;12.47;3.50;;;24.90;42.50;;;;;;21001301;28;20048;-56
2021/06/15 06:35:21;;;;;;;11.13;2.80;;;25.10;42.30;;;;;;20999762;28;20090;-55
2021/06/15 06:45:22;;;;;;;8.50;2.67;;;25.10;42.00;;;;;;21000107;28;20048;-56
2021/06/15 06:55:24;;;;;;;8.37;2.43;;;25.30;42.00;;;;;;20997651;28;20056;-57
2021/06/15 07:05:25;;;;;;;8.23;2.40;;;25.70;41.40;;;;;;20998068;28;20430;-57
2021/06/15 07:15:27;;;;;;;7.03;2.50;;;26.30;40.20;;;;;;20997296;28;20076;-57
2021/06/15 07:25:28;;;;;;;8.77;2.75;;;27.00;38.90;;;;;;20996114;28;20424;-56
2021/06/15 07:35:30;;;;;;;;;;;27.50;37.90;;;;;;20996660;28;20045;-56
2021/06/15 07:45:35;;;;;;;8.20;2.75;;;28.00;37.00;;;;;;20995460;28;19965;-55
2021/06/15 07:55:36;;;;;;;7.82;2.53;;;28.40;36.00;;;;;;20994277;28;20102;-57
2021/06/15 08:05:38;;;;;;;7.35;2.05;;;28.80;35.00;;;;;;20976424;28;20048;-56
2021/06/15 08:15:39;;;;;;;7.82;2.55;;;29.20;33.60;;;;;;20993722;28;20501;-54
2021/06/15 08:25:40;;;;;;;7.85;2.10;;;29.60;31.10;;;;;;20993495;28;20049;-58
2021/06/15 08:35:42;;;;;;;10.73;2.45;;;29.60;30.80;;;;;;20993253;28;20059;-56
2021/06/15 08:45:43;;;;;;;8.95;2.40;;;29.20;30.90;;;;;;20992682;28;20052;-58
2021/06/15 08:55:57;;;;;;;6.47;2.10;;;29.60;30.70;;;;;;20993040;28;20389;-58
2021/06/15 09:05:58;;;;;;;8.98;2.08;;;30.20;29.40;;;;;;20992123;28;20052;-54
2021/06/15 09:16:00;;;;;;;8.13;2.40;;;30.60;30.20;;;;;;20913549;28;20055;-54
2021/06/15 09:26:03;;;;;;;14.20;3.72;;;30.60;30.20;;;;;;20922247;28;20068;-53
2021/06/15 09:36:26;;;;;;;10.40;2.25;;;31.00;29.20;;;;;;20970855;28;20110;-54
2021/06/15 09:46:28;;;;;;;12.82;2.28;;;31.10;29.60;;;;;;20989240;28;20412;-52
2021/06/15 09:56:29;;;;;;;9.95;2.28;;;31.40;28.80;;;;;;20983210;28;20430;-54
2021/06/15 10:06:34;;;;;;;7.18;2.40;;;31.70;28.70;;;;;;20983860;28;20515;-55
2021/06/15 10:16:36;;;;;;;9.48;3.05;;;31.70;28.10;;;;;;21001536;28;20064;-53
2021/06/15 10:26:37;;;;;;;10.38;2.40;;;31.70;28.40;;;;;;20936805;28;20088;-53
2021/06/15 10:36:47;;;;;;;10.35;3.13;;;31.70;29.00;;;;;;20913831;28;20493;-55
2021/06/15 10:46:48;;;;;;;9.07;2.33;;;31.80;28.00;;;;;;20915627;28;20140;-51
2021/06/15 10:57:22;;;;;;;8.60;2.30;;;31.60;28.40;;;;;;20914369;28;20049;-55
2021/06/15 11:07:35;;;;;;;8.02;2.40;;;32.00;26.80;;;;;;20913830;28;20092;-54
2021/06/15 11:17:44;;;;;;;11.15;2.63;;;32.10;25.60;;;;;;20914312;28;20053;-52
2021/06/15 11:27:45;;;;;;;7.70;2.27;;;32.40;24.40;;;;;;20894854;28;20087;-53
2021/06/15 11:37:50;;;;;;;6.60;2.40;;;32.40;25.50;;;;;;20911580;28;20206;-53
2021/06/15 11:47:56;;;;;;;10.02;2.70;;;32.30;25.30;;;;;;20894030;28;20049;-53
2021/06/15 11:58:09;;;;;;;10.65;2.25;;;32.50;24.80;;;;;;20911746;28;20347;-53
2021/06/15 12:08:11;;;;;;;9.27;2.10;;;32.60;24.70;;;;;;20910247;28;20052;-57
2021/06/15 12:18:32;;;;;;;11.70;3.17;;;32.60;23.10;;;;;;20911009;28;20083;-56
2021/06/15 12:28:36;;;;;;;13.48;3.28;;;32.80;23.30;;;;;;20576554;28;20086;-58
2021/06/15 12:38:38;;;;;;;9.02;2.30;;;33.00;22.60;;;;;;20575477;28;20054;-57
2021/06/15 12:48:44;;;;;;;6.15;2.08;;;33.30;21.80;;;;;;20576150;28;20054;-56
2021/06/15 12:58:47;;;;;;;13.15;2.92;;;33.50;21.80;;;;;;20654688;28;20115;-56
2021/06/15 13:08:49;;;;;;;13.63;2.58;;;33.60;21.60;;;;;;20924264;28;20404;-56
2021/06/15 13:19:05;;;;;;;14.07;2.85;;;34.00;20.90;;;;;;20924148;28;20049;-56
2021/06/15 13:29:07;;;;;;;16.50;3.13;;;34.20;21.10;;;;;;20923949;28;20049;-56
2021/06/15 13:39:11;;;;;;;14.50;3.40;;;34.20;21.00;;;;;;20922616;28;20049;-56
2021/06/15 13:49:12;;;;;;;13.52;4.28;;;34.40;21.20;;;;;;20922466;28;20498;-56
2021/06/15 13:59:14;;;;;;;15.68;3.00;;;34.50;21.00;;;;;;20921010;28;20057;-57
2021/06/15 14:09:15;;;;;;;16.15;3.92;;;34.50;21.20;;;;;;20919348;28;20056;-56
2021/06/15 14:19:16;;;;;;;14.98;4.05;;;34.60;21.40;;;;;;20919259;28;20049;-57
2021/06/15 14:29:18;;;;;;;11.82;4.03;;;34.50;21.70;;;;;;20919754;28;20068;-55
2021/06/15 14:39:20;;;;;;;13.00;3.50;;;34.20;21.90;;;;;;20918187;28;20437;-56
2021/06/15 14:49:22;;;;;;;9.48;2.35;;;34.20;22.00;;;;;;20918063;28;20481;-61
2021/06/15 14:59:24;;;;;;;13.93;3.67;;;34.10;22.20;;;;;;20916084;28;20425;-56
2021/06/15 15:09:26;;;;;;;10.05;2.63;;;34.00;22.10;;;;;;20915298;28;20091;-55
2021/06/15 15:19:28;;;;;;;9.77;2.80;;;34.00;22.20;;;;;;20914232;28;20052;-55
2021/06/15 15:29:29;;;;;;;8.60;2.45;;;34.10;21.70;;;;;;20913720;28;20064;-56
2021/06/15 15:39:30;;;;;;;8.15;2.70;;;34.10;22.00;;;;;;20912550;28;20494;-55
2021/06/15 15:49:31;;;;;;;10.75;2.90;;;34.10;22.60;;;;;;20912642;28;20049;-57
2021/06/15 15:59:35;;;;;;;11.68;4.47;;;33.90;23.00;;;;;;20912425;28;20160;-56
2021/06/15 16:09:37;;;;;;;12.90;2.88;;;33.70;23.00;;;;;;20911835;28;20049;-57
2021/06/15 16:19:38;;;;;;;6.95;2.70;;;33.60;23.20;;;;;;20909193;28;20060;-57
2021/06/15 16:29:44;;;;;;;9.32;2.92;;;33.60;23.10;;;;;;20923875;28;20128;-54
2021/06/15 16:39:46;;;;;;;13.45;3.25;;;33.60;22.80;;;;;;20885323;28;20057;-53
2021/06/15 16:49:47;;;;;;;8.35;3.63;;;33.40;23.00;;;;;;20848521;28;20037;-55
2021/06/15 16:59:49;;;;;;;10.10;4.47;;;33.20;24.00;;;;;;20924283;28;20140;-52
2021/06/15 17:09:50;;;;;;;8.77;2.65;;;33.30;24.20;;;;;;20924475;28;20048;-52
2021/06/15 17:19:52;;;;;;;9.45;3.03;;;33.20;24.40;;;;;;20903361;28;20421;-54
2021/06/15 17:29:53;;;;;;;11.05;3.70;;;33.20;24.80;;;;;;20922021;28;20417;-53
2021/06/15 17:39:54;;;;;;;9.75;3.15;;;33.10;25.00;;;;;;20982979;28;20178;-54
2021/06/15 17:49:56;;;;;;;10.57;3.72;;;33.00;25.50;;;;;;21003660;28;20385;-55
2021/06/15 17:59:58;;;;;;;10.77;4.15;;;33.00;25.60;;;;;;21002309;28;20086;-55
2021/06/15 18:10:00;;;;;;;10.85;3.80;;;33.00;26.70;;;;;;20985384;28;20053;-55
2021/06/15 18:20:04;;;;;;;7.63;4.25;;;33.00;26.70;;;;;;21001099;28;20049;-57
2021/06/15 18:30:06;;;;;;;13.50;4.35;;;32.80;27.00;;;;;;20951007;28;20052;-53
2021/06/15 18:40:09;;;;;;;9.48;3.80;;;32.30;27.70;;;;;;20916608;28;20057;-51
2021/06/15 18:50:12;;;;;;;14.40;5.25;;;32.00;28.30;;;;;;20980594;28;20145;-51
2021/06/15 19:00:18;;;;;;;11.00;3.95;;;31.80;28.70;;;;;;20949185;28;20379;-51
2021/06/15 19:10:21;;;;;;;14.20;4.97;;;31.60;29.00;;;;;;20914704;28;20048;-51
2021/06/15 19:20:22;;;;;;;10.10;4.65;;;31.50;29.30;;;;;;20913207;28;20049;-52
2021/06/15 19:30:24;;;;;;;13.70;4.68;;;31.30;29.70;;;;;;20913624;28;20468;-51
2021/06/15 19:40:26;;;;;;;9.57;4.18;;;31.20;30.00;;;;;;20995018;28;20091;-52
2021/06/15 19:50:27;;;;;;;9.00;3.80;;;31.10;30.30;;;;;;20994680;28;20118;-53
2021/06/15 20:00:28;;;;;;;9.57;4.80;;;30.80;30.30;;;;;;20983606;28;20145;-56
2021/06/15 20:10:29;;;;;;;12.27;4.15;;;30.60;30.60;;;;;;20899539;28;20481;-52
2021/06/15 20:20:32;;;;;;;7.30;3.80;;;30.40;31.00;;;;;;20955876;28;20409;-52
2021/06/15 20:30:38;;;;;;;9.35;3.70;;;30.10;31.30;;;;;;20991688;28;20129;-52
2021/06/15 20:40:40;;;;;;;8.05;3.72;;;30.00;31.40;;;;;;20990607;28;20080;-49
2021/06/15 20:50:41;;;;;;;7.68;3.65;;;29.90;31.70;;;;;;20994018;28;20045;-55
2021/06/15 21:00:42;;;;;;;8.02;3.85;;;29.70;31.80;;;;;;20990651;28;20440;-55
2021/06/15 21:10:46;;;;;;;7.20;4.15;;;29.70;31.20;;;;;;20993462;28;20051;-54
2021/06/15 21:20:47;;;;;;;9.43;3.97;;;29.60;31.00;;;;;;21006292;28;20060;-57
2021/06/15 21:30:48;;;;;;;9.10;3.33;;;29.60;30.80;;;;;;21005541;28;20048;-56
2021/06/15 21:40:50;;;;;;;7.22;3.70;;;29.50;30.70;;;;;;21004662;28;20057;-59
2021/06/15 21:50:51;;;;;;;9.93;3.90;;;29.30;31.20;;;;;;20985807;28;20045;-54
2021/06/15 22:00:53;;;;;;;6.35;3.30;;;29.30;31.60;;;;;;21003013;28;20059;-53
2021/06/15 22:10:54;;;;;;;8.65;3.47;;;29.20;32.00;;;;;;21002642;28;20049;-55
2021/06/15 22:20:55;;;;;;;7.15;4.30;;;29.10;32.70;;;;;;21002071;28;20052;-55
2021/06/15 22:30:57;;;;;;;10.13;5.95;;;28.90;33.40;;;;;;20982524;28;20056;-59
2021/06/15 22:40:58;;;;;;;6.95;3.50;;;28.80;37.60;;;;;;21001057;28;20106;-57
2021/06/15 22:50:59;;;;;;;6.18;3.22;;;28.60;36.00;;;;;;21000415;28;20045;-55
2021/06/15 23:01:01;;;;;;;12.00;4.15;;;28.50;35.10;;;;;;20981954;28;20075;-54
2021/06/15 23:11:02;;;;;;;5.72;3.83;;;28.30;38.90;;;;;;20998698;28;20040;-54
2021/06/15 23:21:04;;;;;;;8.63;3.53;;;28.10;39.40;;;;;;20997682;28;20052;-59
2021/06/15 23:31:06;;;;;;;5.90;3.42;;;27.90;37.30;;;;;;20996540;28;20127;-55
2021/06/15 23:41:07;;;;;;;10.10;3.80;;;27.80;37.30;;;;;;20996375;28;20091;-53
2021/06/15 23:51:08;;;;;;;8.52;3.70;;;27.60;42.20;;;;;;20995726;28;20080;-57
